createdAt,value
2017-12-28T00:02:19.753Z,93.10
2017-12-28T00:04:47.455Z,92.70
2017-12-28T00:07:15.076Z,92.60
2017-12-28T00:09:51.798Z,93.10
2017-12-28T00:12:15.422Z,93.40
2017-12-28T00:19:55.547Z,92.90
2017-12-28T00:22:23.173Z,92.70
2017-12-28T00:24:56.705Z,91.50
2017-12-28T00:27:25.115Z,92.00
2017-12-28T00:29:52.750Z,92.10
2017-12-28T00:32:20.455Z,92.20
2017-12-28T00:34:51.322Z,92.60
2017-12-28T00:37:21.208Z,92.40
2017-12-28T00:39:48.884Z,91.50
2017-12-28T00:42:18.474Z,91.20
2017-12-28T00:44:46.091Z,91.60
2017-12-28T00:47:19.706Z,92.40
2017-12-28T00:52:30.463Z,92.30
2017-12-28T00:55:00.345Z,92.50
2017-12-28T00:57:27.978Z,92.70
2017-12-28T00:59:55.661Z,92.70
2017-12-28T01:02:24.526Z,93.00
2017-12-28T01:04:52.315Z,93.30
2017-12-28T01:07:20.024Z,93.30
2017-12-28T01:09:47.640Z,93.30
2017-12-28T01:12:15.263Z,92.80
2017-12-28T01:14:43.632Z,91.20
2017-12-28T01:17:11.457Z,92.20
2017-12-28T01:22:09.962Z,92.70
2017-12-28T01:24:39.577Z,92.80
2017-12-28T01:27:07.204Z,93.30
2017-12-28T01:29:34.892Z,93.40
2017-12-28T01:32:02.511Z,93.50
2017-12-28T01:34:30.153Z,93.50
2017-12-28T01:36:57.864Z,93.30
2017-12-28T01:41:53.111Z,92.50
2017-12-28T01:44:20.796Z,92.20
2017-12-28T01:46:48.419Z,92.70
2017-12-28T01:49:16.047Z,93.10
2017-12-28T01:51:43.755Z,93.00
2017-12-28T01:54:11.384Z,93.10
2017-12-28T01:56:39.001Z,93.50
2017-12-28T01:59:06.691Z,93.20
2017-12-28T02:01:35.605Z,92.90
2017-12-28T02:04:03.235Z,92.50
2017-12-28T02:09:11.631Z,91.90
2017-12-28T02:11:39.334Z,91.50
2017-12-28T02:14:06.959Z,91.60
2017-12-28T02:16:34.578Z,91.60
2017-12-28T02:19:02.284Z,90.70
2017-12-28T02:21:29.908Z,91.00
2017-12-28T02:24:01.231Z,91.10
2017-12-28T02:26:28.908Z,91.30
2017-12-28T02:28:56.532Z,91.70
2017-12-28T02:31:24.152Z,91.60
2017-12-28T02:33:51.851Z,91.20
2017-12-28T02:36:19.483Z,91.00
2017-12-28T02:38:49.211Z,91.10
2017-12-28T02:41:16.888Z,92.00
2017-12-28T02:43:45.085Z,92.40
2017-12-28T02:46:12.708Z,92.70
2017-12-28T02:48:43.260Z,92.90
2017-12-28T02:53:41.797Z,93.10
2017-12-28T02:56:10.019Z,93.20
2017-12-28T02:58:37.567Z,93.10
2017-12-28T03:03:44.027Z,93.30
2017-12-28T03:06:11.660Z,93.20
2017-12-28T03:08:39.296Z,93.30
2017-12-28T03:11:07.930Z,93.40
2017-12-28T03:16:15.298Z,93.20
2017-12-28T03:18:42.925Z,93.30
2017-12-28T03:21:10.543Z,93.20
2017-12-28T03:23:38.226Z,92.90
2017-12-28T03:26:05.851Z,93.00
2017-12-28T03:28:33.509Z,93.10
2017-12-28T03:31:02.864Z,93.10
2017-12-28T03:33:30.490Z,93.20
2017-12-28T03:36:00.192Z,93.20
2017-12-28T03:38:27.886Z,93.00
2017-12-28T03:40:55.516Z,93.10
2017-12-28T03:43:23.967Z,93.00
2017-12-28T03:45:51.648Z,92.80
2017-12-28T03:48:19.272Z,93.00
2017-12-28T03:50:46.902Z,92.90
2017-12-28T03:53:14.591Z,92.90
2017-12-28T03:58:09.845Z,92.70
2017-12-28T04:00:37.548Z,92.60
2017-12-28T04:03:05.172Z,92.60
2017-12-28T04:05:32.791Z,92.50
2017-12-28T04:12:56.727Z,92.50
2017-12-28T04:15:24.443Z,92.80
2017-12-28T04:17:52.076Z,92.90
2017-12-28T04:20:19.702Z,93.30
2017-12-28T04:22:47.405Z,92.00
2017-12-28T04:25:15.019Z,92.10
2017-12-28T04:27:42.655Z,92.30
2017-12-28T04:32:37.979Z,92.10
2017-12-28T04:35:05.594Z,92.00
2017-12-28T04:40:16.503Z,92.40
2017-12-28T04:42:44.204Z,92.30
2017-12-28T04:45:11.845Z,92.10
2017-12-28T04:47:42.608Z,92.00
2017-12-28T04:50:10.288Z,92.20
2017-12-28T04:52:39.672Z,92.70
2017-12-28T04:55:05.526Z,92.70
2017-12-28T04:57:33.233Z,92.90
2017-12-28T05:00:00.851Z,92.50
2017-12-28T05:02:29.667Z,92.10
2017-12-28T05:04:57.354Z,91.70
2017-12-28T05:07:24.983Z,92.10
2017-12-28T05:09:52.607Z,92.70
2017-12-28T05:12:20.737Z,93.00
2017-12-28T05:14:48.370Z,92.90
2017-12-28T05:17:15.996Z,93.00
2017-12-28T05:19:43.674Z,93.10
2017-12-28T05:22:11.299Z,93.20
2017-12-28T05:24:38.932Z,93.10
2017-12-28T05:27:06.626Z,92.90
2017-12-28T05:29:35.111Z,92.80
2017-12-28T05:32:02.751Z,92.70
2017-12-28T05:34:32.197Z,91.90
2017-12-28T05:36:58.065Z,91.80
2017-12-28T05:39:27.542Z,91.20
2017-12-28T05:41:53.404Z,91.80
2017-12-28T05:44:21.032Z,92.70
2017-12-28T05:46:52.019Z,93.20
2017-12-28T05:49:19.711Z,93.40
2017-12-28T05:54:27.394Z,93.40
2017-12-28T05:56:58.259Z,93.20
2017-12-28T05:59:25.885Z,92.60
2017-12-28T06:01:57.254Z,92.20
2017-12-28T06:04:24.882Z,92.20
2017-12-28T06:06:52.507Z,92.00
2017-12-28T06:11:47.845Z,91.50
2017-12-28T06:14:15.466Z,91.70
2017-12-28T06:16:43.153Z,92.20
2017-12-28T06:19:11.306Z,92.80
2017-12-28T06:21:40.693Z,92.90
2017-12-28T06:24:09.311Z,92.90
2017-12-28T06:29:04.812Z,92.90
2017-12-28T06:31:32.502Z,92.90
2017-12-28T06:34:00.123Z,92.90
2017-12-28T06:36:28.567Z,92.70
2017-12-28T06:38:56.302Z,92.90
2017-12-28T06:41:23.924Z,92.50
2017-12-28T06:43:51.545Z,92.20
2017-12-28T06:46:19.307Z,91.90
2017-12-28T06:48:46.935Z,91.90
2017-12-28T06:53:43.556Z,92.50
2017-12-28T06:56:12.372Z,92.50
2017-12-28T07:01:09.512Z,93.60
2017-12-28T07:03:37.150Z,92.70
2017-12-28T07:06:04.775Z,92.50
2017-12-28T07:08:33.279Z,92.60
2017-12-28T07:11:00.924Z,92.50
2017-12-28T07:13:28.553Z,92.40
2017-12-28T07:21:12.393Z,92.90
2017-12-28T07:23:37.262Z,93.10
2017-12-28T07:26:04.905Z,93.00
2017-12-28T07:28:32.585Z,92.80
2017-12-28T07:31:03.351Z,92.80
2017-12-28T07:33:31.936Z,92.90
2017-12-28T07:36:01.097Z,93.10
2017-12-28T07:38:28.724Z,93.40
2017-12-28T07:40:58.137Z,93.20
2017-12-28T07:43:26.651Z,93.30
2017-12-28T07:45:54.273Z,92.90
2017-12-28T07:48:21.900Z,92.60
2017-12-28T07:50:53.023Z,92.50
2017-12-28T07:53:20.650Z,92.90
2017-12-28T07:55:49.134Z,92.60
2017-12-28T07:58:16.823Z,92.40
2017-12-28T08:00:45.046Z,92.20
2017-12-28T08:03:12.678Z,92.10
2017-12-28T08:05:40.367Z,91.90
2017-12-28T08:08:08.851Z,91.20
2017-12-28T08:10:36.471Z,90.60
2017-12-28T08:13:04.172Z,90.30
2017-12-28T08:15:33.053Z,91.10
2017-12-28T08:18:01.575Z,90.70
2017-12-28T08:20:29.255Z,91.20
2017-12-28T08:22:57.133Z,91.10
2017-12-28T08:25:24.514Z,91.10
2017-12-28T08:27:52.194Z,90.50
2017-12-28T08:33:04.108Z,89.80
2017-12-28T08:35:31.728Z,90.00
2017-12-28T08:40:30.449Z,88.60
2017-12-28T08:42:58.079Z,87.30
2017-12-28T08:45:26.084Z,87.50
2017-12-28T08:47:53.786Z,87.30
2017-12-28T08:50:21.405Z,86.80
2017-12-28T08:52:49.870Z,86.70
2017-12-28T08:55:17.545Z,87.50
2017-12-28T08:57:45.164Z,87.30
2017-12-28T09:00:15.234Z,87.30
2017-12-28T09:02:48.856Z,87.60
2017-12-28T09:05:14.653Z,87.40
2017-12-28T09:07:42.287Z,87.30
2017-12-28T09:10:09.995Z,87.90
2017-12-28T09:12:37.618Z,87.20
2017-12-28T09:15:06.133Z,88.10
2017-12-28T09:17:33.831Z,88.80
2017-12-28T09:20:01.454Z,89.10
2017-12-28T09:22:29.083Z,89.60
2017-12-28T09:24:56.774Z,89.20
2017-12-28T09:27:24.401Z,90.00
2017-12-28T09:29:53.318Z,89.30
2017-12-28T09:32:21.019Z,89.30
2017-12-28T09:34:48.651Z,88.90
2017-12-28T09:37:16.282Z,88.30
2017-12-28T09:39:45.799Z,88.30
2017-12-28T09:42:11.602Z,87.30
2017-12-28T09:44:43.063Z,87.40
2017-12-28T09:47:10.743Z,87.50
2017-12-28T09:49:38.367Z,87.50
2017-12-28T09:52:06.849Z,87.70
2017-12-28T09:54:37.510Z,87.60
2017-12-28T09:59:44.978Z,87.00
2017-12-28T10:02:12.610Z,87.20
2017-12-28T10:04:40.229Z,85.40
2017-12-28T10:07:07.916Z,86.40
2017-12-28T10:09:35.538Z,86.70
2017-12-28T10:12:04.108Z,84.50
2017-12-28T10:14:34.001Z,84.90
2017-12-28T10:17:01.624Z,85.30
2017-12-28T10:19:29.242Z,82.90
2017-12-28T10:21:56.947Z,83.00
2017-12-28T10:27:06.584Z,82.40
2017-12-28T10:29:34.230Z,81.90
2017-12-28T10:32:04.769Z,83.00
2017-12-28T10:34:32.473Z,82.90
2017-12-28T10:37:00.101Z,84.00
2017-12-28T10:39:30.641Z,84.50
2017-12-28T10:41:58.340Z,85.30
2017-12-28T10:46:54.604Z,85.20
2017-12-28T10:49:23.518Z,83.90
2017-12-28T10:51:51.556Z,85.60
2017-12-28T10:54:21.034Z,86.70
2017-12-28T10:56:49.559Z,84.00
2017-12-28T10:59:17.181Z,74.80
2017-12-28T11:01:44.803Z,74.60
2017-12-28T11:04:12.508Z,76.50
2017-12-28T11:11:53.505Z,64.00
2017-12-28T11:14:26.700Z,65.90
2017-12-28T11:16:54.311Z,66.00
2017-12-28T11:19:23.297Z,65.10
2017-12-28T11:21:50.996Z,67.20
2017-12-28T11:24:18.619Z,63.80
2017-12-28T11:26:46.755Z,63.70
2017-12-28T11:29:15.378Z,65.80
2017-12-28T11:31:43.691Z,64.80
2017-12-28T11:34:14.223Z,66.80
2017-12-28T11:36:41.905Z,69.30
2017-12-28T11:39:09.524Z,70.20
2017-12-28T11:41:37.801Z,71.20
2017-12-28T11:44:04.855Z,72.00
2017-12-28T11:46:34.622Z,69.20
2017-12-28T11:49:02.248Z,71.70
2017-12-28T11:51:35.628Z,71.20
2017-12-28T11:56:39.731Z,72.20
2017-12-28T11:59:13.045Z,72.30
2017-12-28T12:04:25.006Z,73.60
2017-12-28T12:06:58.386Z,73.60
2017-12-28T12:09:26.014Z,72.80
2017-12-28T12:11:54.723Z,71.40
2017-12-28T12:14:24.458Z,75.30
2017-12-28T12:16:52.085Z,74.80
2017-12-28T12:19:19.702Z,75.40
2017-12-28T12:26:54.835Z,74.30
2017-12-28T12:29:22.452Z,73.20
2017-12-28T12:31:54.986Z,74.90
2017-12-28T12:34:17.750Z,75.10
2017-12-28T12:36:45.377Z,75.20
2017-12-28T12:39:13.000Z,77.10
2017-12-28T12:41:40.699Z,73.50
2017-12-28T12:44:08.328Z,74.90
2017-12-28T12:46:36.486Z,74.80
2017-12-28T12:49:04.012Z,75.40
2017-12-28T12:51:31.635Z,74.50
2017-12-28T12:53:59.262Z,75.30
2017-12-28T12:56:26.955Z,76.00
2017-12-28T12:58:54.573Z,74.50
2017-12-28T13:01:22.189Z,72.10
2017-12-28T13:03:53.196Z,68.70
2017-12-28T13:06:20.822Z,70.90
2017-12-28T13:08:49.937Z,68.50
2017-12-28T13:11:17.572Z,67.50
2017-12-28T13:13:45.266Z,70.60
2017-12-28T13:16:12.941Z,69.80
2017-12-28T13:18:40.566Z,73.30
2017-12-28T13:21:08.182Z,73.00
2017-12-28T13:23:36.759Z,73.00
2017-12-28T13:26:04.378Z,74.30
2017-12-28T13:28:33.785Z,69.50
2017-12-28T13:30:59.693Z,75.10
2017-12-28T13:33:27.314Z,76.50
2017-12-28T13:35:54.951Z,77.00
2017-12-28T13:38:27.249Z,76.60
2017-12-28T13:40:54.861Z,76.60
2017-12-28T13:43:24.553Z,76.90
2017-12-28T13:51:02.418Z,76.50
2017-12-28T13:53:30.064Z,73.50
2017-12-28T13:58:25.368Z,72.10
2017-12-28T14:00:53.001Z,75.30
2017-12-28T14:03:20.621Z,71.80
2017-12-28T14:05:48.299Z,67.70
2017-12-28T14:08:15.930Z,66.60
2017-12-28T14:10:44.829Z,66.80
2017-12-28T14:13:12.521Z,64.70
2017-12-28T14:15:40.142Z,65.70
2017-12-28T14:18:07.763Z,63.60
2017-12-28T14:20:35.465Z,63.40
2017-12-28T14:25:30.723Z,63.20
2017-12-28T14:27:58.392Z,62.90
2017-12-28T14:30:26.031Z,62.60
2017-12-28T14:32:53.648Z,63.70
2017-12-28T14:37:49.795Z,62.60
2017-12-28T14:42:45.111Z,61.10
2017-12-28T14:45:13.691Z,61.10
2017-12-28T14:47:41.308Z,62.00
2017-12-28T14:50:08.988Z,63.80
2017-12-28T14:52:36.606Z,63.90
2017-12-28T14:55:04.236Z,60.60
2017-12-28T14:57:31.927Z,61.80
2017-12-28T14:59:59.548Z,61.60
2017-12-28T15:02:27.171Z,60.60
2017-12-28T15:04:54.884Z,61.10
2017-12-28T15:09:50.147Z,61.70
2017-12-28T15:14:56.930Z,60.70
2017-12-28T15:17:24.616Z,61.20
2017-12-28T15:19:52.270Z,59.90
2017-12-28T15:22:19.886Z,61.00
2017-12-28T15:24:48.400Z,62.80
2017-12-28T15:27:16.022Z,63.90
2017-12-28T15:29:43.655Z,61.40
2017-12-28T15:32:11.326Z,61.60
2017-12-28T15:34:38.942Z,62.50
2017-12-28T15:37:06.581Z,62.50
2017-12-28T15:39:34.285Z,64.30
2017-12-28T15:42:01.902Z,64.00
2017-12-28T15:44:29.525Z,65.00
2017-12-28T15:46:57.219Z,62.90
2017-12-28T15:49:25.787Z,61.10
2017-12-28T15:51:53.403Z,61.70
2017-12-28T15:54:21.087Z,64.00
2017-12-28T15:56:48.707Z,65.80
2017-12-28T15:59:16.336Z,64.70
2017-12-28T16:01:44.045Z,65.90
2017-12-28T16:04:11.663Z,64.50
2017-12-28T16:06:39.290Z,65.00
2017-12-28T16:09:07.001Z,66.70
2017-12-28T16:11:34.637Z,66.10
2017-12-28T16:14:03.125Z,67.00
2017-12-28T16:16:30.820Z,66.70
2017-12-28T16:18:58.460Z,66.10
2017-12-28T16:21:26.086Z,64.70
2017-12-28T16:23:53.765Z,64.80
2017-12-28T16:26:21.388Z,65.70
2017-12-28T16:28:49.021Z,66.30
2017-12-28T16:31:16.691Z,66.40
2017-12-28T16:33:44.341Z,66.60
2017-12-28T16:36:11.972Z,63.80
2017-12-28T16:41:18.752Z,66.00
2017-12-28T16:43:47.377Z,65.90
2017-12-28T16:46:15.057Z,65.70
2017-12-28T16:48:42.630Z,65.70
2017-12-28T16:51:10.344Z,65.10
2017-12-28T16:53:37.969Z,64.90
2017-12-28T16:58:33.283Z,65.00
2017-12-28T17:01:00.925Z,64.70
2017-12-28T17:03:28.537Z,65.20
2017-12-28T17:05:56.238Z,64.50
2017-12-28T17:08:23.860Z,63.90
2017-12-28T17:10:51.480Z,65.20
2017-12-28T17:13:19.178Z,65.30
2017-12-28T17:15:46.807Z,60.80
2017-12-28T17:18:14.438Z,60.30
2017-12-28T17:20:42.140Z,58.00
2017-12-28T17:23:09.755Z,59.10
2017-12-28T17:25:37.371Z,59.40
2017-12-28T17:28:05.054Z,60.40
2017-12-28T17:30:32.672Z,60.60
2017-12-28T17:33:00.299Z,59.60
2017-12-28T17:35:27.999Z,57.90
2017-12-28T17:37:55.619Z,59.00
2017-12-28T17:40:24.000Z,60.80
2017-12-28T17:42:51.684Z,60.20
2017-12-28T17:47:46.926Z,58.90
2017-12-28T17:50:14.623Z,60.10
2017-12-28T17:52:42.247Z,58.90
2017-12-28T17:55:09.867Z,59.80
2017-12-28T17:57:37.564Z,60.20
2017-12-28T18:02:43.796Z,62.30
2017-12-28T18:05:11.422Z,66.20
2017-12-28T18:07:39.039Z,67.50
2017-12-28T18:10:06.738Z,68.80
2017-12-28T18:12:34.363Z,69.70
2017-12-28T18:17:29.676Z,66.10
2017-12-28T18:19:57.302Z,70.20
2017-12-28T18:22:24.920Z,72.10
2017-12-28T18:24:52.631Z,72.70
2017-12-28T18:27:20.245Z,72.00
2017-12-28T18:29:47.868Z,72.40
2017-12-28T18:32:15.548Z,72.70
2017-12-28T18:37:10.790Z,72.40
2017-12-28T18:39:38.480Z,71.30
2017-12-28T18:42:06.099Z,72.10
2017-12-28T18:44:33.721Z,76.40
2017-12-28T18:47:01.408Z,76.30
2017-12-28T18:49:29.026Z,75.60
2017-12-28T18:51:57.152Z,73.00
2017-12-28T18:54:25.668Z,72.70
2017-12-28T18:56:53.292Z,71.20
2017-12-28T18:59:21.725Z,71.10
2017-12-28T19:01:49.408Z,72.50
2017-12-28T19:04:17.042Z,72.90
2017-12-28T19:06:44.670Z,73.90
2017-12-28T19:09:12.356Z,74.70
2017-12-28T19:11:39.974Z,75.90
2017-12-28T19:14:07.610Z,74.30
2017-12-28T19:16:35.303Z,73.30
2017-12-28T19:19:02.926Z,73.50
2017-12-28T19:21:30.547Z,74.40
2017-12-28T19:23:58.229Z,80.60
2017-12-28T19:29:05.006Z,83.60
2017-12-28T19:31:32.626Z,82.40
2017-12-28T19:34:00.248Z,82.20
2017-12-28T19:36:32.770Z,83.00
2017-12-28T19:39:00.383Z,84.10
2017-12-28T19:41:28.969Z,83.80
2017-12-28T19:43:56.649Z,81.60
2017-12-28T19:48:51.895Z,80.80
2017-12-28T19:51:19.596Z,81.10
2017-12-28T19:53:47.239Z,79.30
2017-12-28T19:56:14.851Z,78.20
2017-12-28T20:01:10.164Z,79.90
2017-12-28T20:03:37.786Z,83.30
2017-12-28T20:06:05.470Z,84.70
2017-12-28T20:08:33.103Z,85.00
2017-12-28T20:11:00.742Z,84.60
2017-12-28T20:13:28.432Z,84.00
2017-12-28T20:15:57.003Z,83.80
2017-12-28T20:18:24.624Z,82.80
2017-12-28T20:20:52.300Z,83.00
2017-12-28T20:23:19.929Z,83.60
2017-12-28T20:25:47.547Z,85.30
2017-12-28T20:28:15.269Z,84.60
2017-12-28T20:30:42.883Z,83.20
2017-12-28T20:33:10.505Z,81.70
2017-12-28T20:35:38.210Z,82.40
2017-12-28T20:38:05.844Z,81.60
2017-12-28T20:40:33.480Z,80.90
2017-12-28T20:43:01.646Z,80.20
2017-12-28T20:45:29.266Z,78.60
2017-12-28T20:50:36.055Z,77.00
2017-12-28T20:53:03.671Z,68.60
2017-12-28T20:55:31.292Z,64.30
2017-12-28T20:57:58.975Z,64.10
2017-12-28T21:00:26.608Z,64.30
2017-12-28T21:02:54.229Z,64.10
2017-12-28T21:05:21.936Z,61.70
2017-12-28T21:07:49.570Z,63.40
2017-12-28T21:10:17.200Z,63.40
2017-12-28T21:12:44.896Z,61.90
2017-12-28T21:15:13.427Z,59.10
2017-12-28T21:17:41.058Z,59.70
2017-12-28T21:20:08.739Z,56.90
2017-12-28T21:22:36.374Z,62.60
2017-12-28T21:25:03.997Z,66.50
2017-12-28T21:30:03.388Z,70.60
2017-12-28T21:32:31.011Z,72.40
2017-12-28T21:34:58.707Z,73.10
2017-12-28T21:37:26.361Z,72.70
2017-12-28T21:39:53.960Z,73.90
2017-12-28T21:42:21.659Z,74.70
2017-12-28T21:44:49.276Z,73.50
2017-12-28T21:47:16.894Z,79.80
2017-12-28T21:49:44.597Z,81.10
2017-12-28T21:52:12.221Z,82.20
2017-12-28T21:54:40.596Z,84.20
2017-12-28T21:57:08.283Z,84.70
2017-12-28T21:59:35.907Z,84.70
2017-12-28T22:04:31.234Z,84.50
2017-12-28T22:06:58.865Z,83.80
2017-12-28T22:09:26.476Z,84.60
2017-12-28T22:11:54.219Z,84.30
2017-12-28T22:17:00.950Z,82.20
2017-12-28T22:19:28.599Z,81.90
2017-12-28T22:21:56.216Z,81.20
2017-12-28T22:26:51.549Z,79.00
2017-12-28T22:29:19.189Z,79.40
2017-12-28T22:34:14.557Z,79.60
2017-12-28T22:36:42.173Z,77.20
2017-12-28T22:41:37.538Z,67.90
2017-12-28T22:44:05.145Z,66.60
2017-12-28T22:46:33.675Z,66.00
2017-12-28T22:49:01.306Z,66.10
2017-12-28T22:53:56.604Z,59.50
2017-12-28T22:56:24.225Z,58.00
2017-12-28T22:58:51.846Z,57.30
2017-12-28T23:01:19.544Z,56.20
2017-12-28T23:03:47.176Z,56.50
2017-12-28T23:06:15.658Z,55.50
2017-12-28T23:11:10.970Z,56.50
2017-12-28T23:13:38.603Z,55.60
2017-12-28T23:16:06.305Z,55.10
2017-12-28T23:18:33.925Z,55.70
2017-12-28T23:21:01.547Z,55.20
2017-12-28T23:23:29.230Z,54.30
2017-12-28T23:25:56.855Z,52.60
2017-12-28T23:28:24.472Z,54.70
2017-12-28T23:30:52.179Z,55.70
2017-12-28T23:33:19.796Z,55.60
2017-12-28T23:35:47.416Z,56.60
2017-12-28T23:38:15.088Z,54.90
2017-12-28T23:40:42.716Z,57.00
2017-12-28T23:45:49.491Z,56.30
2017-12-28T23:48:17.111Z,56.20
2017-12-28T23:50:44.737Z,56.00
2017-12-28T23:53:12.434Z,56.90
2017-12-28T23:55:40.066Z,57.50
2017-12-28T23:58:07.725Z,56.20
